Aérodrome :
LOGIN :

S'inscrire | Disclaimer

   EN    FR    IT 

 










Légende :    VFR   VFR Marginal   IFR   IFR Intensif   IFR Très Intensif
Visi : 
Plafond : 
>= 8 km
>= 3000ft
5 à 8 km
1000 à 3000 ft
1500m à 5 km
500 à 1000 ft
800 à 1500m
200 à 500 ft
< 800m
< 200 ft
Symboles :   Orages  Brouillard  Fortes neiges  Fortes précipitations  Vent > 20 kt
SIGMETs :   Divers  Orages  Givrage  Turbulence  Onde Orograph.  Cendres Volcan.






- Altitude de l'aérodrome : 49 ft
- Code IATA : SEN


EGMC - Southend

DERNIER METAR :
  • 270850Z VRB02KT CAVOK 06/03 Q1041

METARs EXPIRÉS :
  • 270820Z VRB02KT CAVOK 04/03 Q1041
  • 270750Z 31002KT CAVOK 02/01 Q1041
  • 270720Z 32004KT CAVOK M00/M01 Q1041
  • 270650Z 32003KT CAVOK M01/M02 Q1041
  • 270620Z 32002KT CAVOK M01/M01 Q1040

TAF TAF EGMC
Valide du 27 à 09h jusqu'au 27 à 18h UTC


270755Z 2709/2718 30005KT CAVOK
PROB30
TEMPO 2709/2710 7000



MET'MAP, la Météo Aéronautique d'un coup d'oeil ! - Copyright ORBIFLY Décembre 2007 - Disclaimer

ORBIFLY MET'MAP TEAM :

Programmation & Développement : Alexandra Zaïnal
Sur une idée originale de : Baudouin d'Aumeries
Assistance à la programmation : Marc-Olivier Méhu
Soutien technique & logistique : Manuel Goepfert

Contact : metmap@orbifly.com




SOURCES & CREDITS :

   NOAA